sensor_id;sensor_type;location;lat;lon;timestamp;temperature;humidity
53782;DHT22;39692;53.114;7.060;2022-07-18T00:02:04;17.40;99.90
53782;DHT22;39692;53.114;7.060;2022-07-18T00:04:30;17.30;99.90
53782;DHT22;39692;53.114;7.060;2022-07-18T00:06:56;17.30;99.90
53782;DHT22;39692;53.114;7.060;2022-07-18T00:09:22;17.30;99.90
53782;DHT22;39692;53.114;7.060;2022-07-18T00:11:52;17.30;99.90
53782;DHT22;39692;53.114;7.060;2022-07-18T00:14:20;17.30;99.90
53782;DHT22;39692;53.114;7.060;2022-07-18T00:16:46;17.20;99.90
53782;DHT22;39692;53.114;7.060;2022-07-18T00:19:12;17.10;99.90
53782;DHT22;39692;53.114;7.060;2022-07-18T00:21:38;17.10;99.90
53782;DHT22;39692;53.114;7.060;2022-07-18T00:24:04;17.10;99.90
53782;DHT22;39692;53.114;7.060;2022-07-18T00:26:29;17.00;99.90
53782;DHT22;39692;53.114;7.060;2022-07-18T00:28:56;16.90;99.90
53782;DHT22;39692;53.114;7.060;2022-07-18T00:31:22;16.90;99.90
53782;DHT22;39692;53.114;7.060;2022-07-18T00:33:47;16.80;99.90
53782;DHT22;39692;53.114;7.060;2022-07-18T00:36:13;16.70;99.90
53782;DHT22;39692;53.114;7.060;2022-07-18T00:38:39;16.70;99.90
53782;DHT22;39692;53.114;7.060;2022-07-18T00:41:05;16.80;99.90
53782;DHT22;39692;53.114;7.060;2022-07-18T00:43:30;16.80;99.90
53782;DHT22;39692;53.114;7.060;2022-07-18T00:45:56;16.90;99.90
53782;DHT22;39692;53.114;7.060;2022-07-18T00:48:22;16.90;99.90
53782;DHT22;39692;53.114;7.060;2022-07-18T00:50:48;16.90;99.90
53782;DHT22;39692;53.114;7.060;2022-07-18T00:53:14;16.90;99.90
53782;DHT22;39692;53.114;7.060;2022-07-18T00:55:42;16.90;99.90
53782;DHT22;39692;53.114;7.060;2022-07-18T00:58:10;17.00;99.90
53782;DHT22;39692;53.114;7.060;2022-07-18T01:00:36;17.00;99.90
53782;DHT22;39692;53.114;7.060;2022-07-18T01:03:21;17.00;99.90
53782;DHT22;39692;53.114;7.060;2022-07-18T01:05:46;17.00;99.90
53782;DHT22;39692;53.114;7.060;2022-07-18T01:08:12;16.90;99.90
53782;DHT22;39692;53.114;7.060;2022-07-18T01:10:38;16.90;99.90
53782;DHT22;39692;53.114;7.060;2022-07-18T01:13:04;16.90;99.90
53782;DHT22;39692;53.114;7.060;2022-07-18T01:15:29;16.90;99.90
53782;DHT22;39692;53.114;7.060;2022-07-18T01:17:55;16.80;99.90
53782;DHT22;39692;53.114;7.060;2022-07-18T01:20:21;16.70;99.90
53782;DHT22;39692;53.114;7.060;2022-07-18T01:22:46;16.60;99.90
53782;DHT22;39692;53.114;7.060;2022-07-18T01:25:13;16.60;99.90
53782;DHT22;39692;53.114;7.060;2022-07-18T01:27:40;16.60;99.90
53782;DHT22;39692;53.114;7.060;2022-07-18T01:30:06;16.60;99.90
53782;DHT22;39692;53.114;7.060;2022-07-18T01:32:32;16.60;99.90
53782;DHT22;39692;53.114;7.060;2022-07-18T01:34:58;16.50;99.90
53782;DHT22;39692;53.114;7.060;2022-07-18T01:37:23;16.50;99.90
53782;DHT22;39692;53.114;7.060;2022-07-18T01:39:49;16.40;99.90
53782;DHT22;39692;53.114;7.060;2022-07-18T01:42:15;16.40;99.90
53782;DHT22;39692;53.114;7.060;2022-07-18T01:44:42;16.40;99.90
53782;DHT22;39692;53.114;7.060;2022-07-18T01:47:09;16.50;99.90
53782;DHT22;39692;53.114;7.060;2022-07-18T01:49:36;16.50;99.90
53782;DHT22;39692;53.114;7.060;2022-07-18T01:52:03;16.50;99.90
53782;DHT22;39692;53.114;7.060;2022-07-18T01:54:30;16.60;99.90
53782;DHT22;39692;53.114;7.060;2022-07-18T01:56:58;16.60;99.90
53782;DHT22;39692;53.114;7.060;2022-07-18T01:59:24;16.50;99.90
53782;DHT22;39692;53.114;7.060;2022-07-18T02:01:50;16.50;99.90
53782;DHT22;39692;53.114;7.060;2022-07-18T02:04:16;16.40;99.90
53782;DHT22;39692;53.114;7.060;2022-07-18T02:06:42;16.40;99.90
53782;DHT22;39692;53.114;7.060;2022-07-18T02:09:10;16.30;99.90
53782;DHT22;39692;53.114;7.060;2022-07-18T02:11:36;16.30;99.90
53782;DHT22;39692;53.114;7.060;2022-07-18T02:14:03;16.20;99.90
53782;DHT22;39692;53.114;7.060;2022-07-18T02:16:29;16.20;99.90
53782;DHT22;39692;53.114;7.060;2022-07-18T02:18:56;16.10;99.90
53782;DHT22;39692;53.114;7.060;2022-07-18T02:21:21;16.00;99.90
53782;DHT22;39692;53.114;7.060;2022-07-18T02:23:47;15.90;99.90
53782;DHT22;39692;53.114;7.060;2022-07-18T02:26:13;15.90;99.90
53782;DHT22;39692;53.114;7.060;2022-07-18T02:28:39;15.90;99.90
53782;DHT22;39692;53.114;7.060;2022-07-18T02:31:05;15.80;99.90
53782;DHT22;39692;53.114;7.060;2022-07-18T02:33:32;15.80;99.90
53782;DHT22;39692;53.114;7.060;2022-07-18T02:35:57;15.80;99.90
53782;DHT22;39692;53.114;7.060;2022-07-18T02:38:23;15.80;99.90
53782;DHT22;39692;53.114;7.060;2022-07-18T02:40:49;15.80;99.90
53782;DHT22;39692;53.114;7.060;2022-07-18T02:43:15;15.90;99.90
53782;DHT22;39692;53.114;7.060;2022-07-18T02:45:41;15.90;99.90
53782;DHT22;39692;53.114;7.060;2022-07-18T02:48:07;15.90;99.90
53782;DHT22;39692;53.114;7.060;2022-07-18T02:50:34;16.00;99.90
53782;DHT22;39692;53.114;7.060;2022-07-18T02:52:59;15.90;99.90
53782;DHT22;39692;53.114;7.060;2022-07-18T02:55:25;15.90;99.90
53782;DHT22;39692;53.114;7.060;2022-07-18T02:57:51;15.90;99.90
53782;DHT22;39692;53.114;7.060;2022-07-18T03:00:17;15.90;99.90
53782;DHT22;39692;53.114;7.060;2022-07-18T03:02:44;15.90;99.90
53782;DHT22;39692;53.114;7.060;2022-07-18T03:05:11;15.80;99.90
53782;DHT22;39692;53.114;7.060;2022-07-18T03:07:37;15.80;99.90
53782;DHT22;39692;53.114;7.060;2022-07-18T03:10:05;15.80;99.90
53782;DHT22;39692;53.114;7.060;2022-07-18T03:12:31;15.80;99.90
53782;DHT22;39692;53.114;7.060;2022-07-18T03:14:57;15.70;99.90
53782;DHT22;39692;53.114;7.060;2022-07-18T03:17:23;15.70;99.90
53782;DHT22;39692;53.114;7.060;2022-07-18T03:19:49;15.70;99.90
53782;DHT22;39692;53.114;7.060;2022-07-18T03:22:14;15.70;99.90
53782;DHT22;39692;53.114;7.060;2022-07-18T03:24:40;15.60;99.90
53782;DHT22;39692;53.114;7.060;2022-07-18T03:27:06;15.60;99.90
53782;DHT22;39692;53.114;7.060;2022-07-18T03:29:31;15.60;99.90
53782;DHT22;39692;53.114;7.060;2022-07-18T03:31:57;15.60;99.90
53782;DHT22;39692;53.114;7.060;2022-07-18T03:34:23;15.60;99.90
53782;DHT22;39692;53.114;7.060;2022-07-18T03:36:48;15.60;99.90
53782;DHT22;39692;53.114;7.060;2022-07-18T03:39:14;15.60;99.90
53782;DHT22;39692;53.114;7.060;2022-07-18T03:41:40;15.60;99.90
53782;DHT22;39692;53.114;7.060;2022-07-18T03:44:06;15.50;99.90
53782;DHT22;39692;53.114;7.060;2022-07-18T03:46:32;15.50;99.90
53782;DHT22;39692;53.114;7.060;2022-07-18T03:48:58;15.50;99.90
53782;DHT22;39692;53.114;7.060;2022-07-18T03:51:24;15.60;99.90
53782;DHT22;39692;53.114;7.060;2022-07-18T03:53:50;15.70;99.90
53782;DHT22;39692;53.114;7.060;2022-07-18T03:56:16;15.90;99.90
53782;DHT22;39692;53.114;7.060;2022-07-18T03:58:41;16.10;99.90
53782;DHT22;39692;53.114;7.060;2022-07-18T04:01:07;16.20;99.90
53782;DHT22;39692;53.114;7.060;2022-07-18T04:03:33;16.20;99.90
53782;DHT22;39692;53.114;7.060;2022-07-18T04:05:58;16.20;99.90
53782;DHT22;39692;53.114;7.060;2022-07-18T04:08:24;16.20;99.90
53782;DHT22;39692;53.114;7.060;2022-07-18T04:10:50;16.10;99.90
53782;DHT22;39692;53.114;7.060;2022-07-18T04:13:16;16.10;99.90
53782;DHT22;39692;53.114;7.060;2022-07-18T04:15:41;16.20;99.90
53782;DHT22;39692;53.114;7.060;2022-07-18T04:18:07;16.10;99.90
53782;DHT22;39692;53.114;7.060;2022-07-18T04:20:34;16.20;99.90
53782;DHT22;39692;53.114;7.060;2022-07-18T04:23:04;16.20;99.90
53782;DHT22;39692;53.114;7.060;2022-07-18T04:25:39;16.20;99.90
53782;DHT22;39692;53.114;7.060;2022-07-18T04:28:05;16.20;99.90
53782;DHT22;39692;53.114;7.060;2022-07-18T04:30:32;16.20;99.90
53782;DHT22;39692;53.114;7.060;2022-07-18T04:33:00;16.20;99.90
53782;DHT22;39692;53.114;7.060;2022-07-18T04:35:26;16.20;99.90
53782;DHT22;39692;53.114;7.060;2022-07-18T04:37:52;16.40;99.90
53782;DHT22;39692;53.114;7.060;2022-07-18T04:40:17;16.50;99.90
53782;DHT22;39692;53.114;7.060;2022-07-18T04:42:43;16.60;99.90
53782;DHT22;39692;53.114;7.060;2022-07-18T04:45:10;16.70;99.90
53782;DHT22;39692;53.114;7.060;2022-07-18T04:47:36;16.80;99.90
53782;DHT22;39692;53.114;7.060;2022-07-18T04:50:03;16.90;99.90
53782;DHT22;39692;53.114;7.060;2022-07-18T04:52:38;17.10;99.90
53782;DHT22;39692;53.114;7.060;2022-07-18T04:55:04;17.30;99.90
53782;DHT22;39692;53.114;7.060;2022-07-18T04:57:30;17.50;99.90
53782;DHT22;39692;53.114;7.060;2022-07-18T04:59:56;17.50;99.90
53782;DHT22;39692;53.114;7.060;2022-07-18T05:02:22;17.70;99.90
53782;DHT22;39692;53.114;7.060;2022-07-18T05:04:47;17.70;99.90
53782;DHT22;39692;53.114;7.060;2022-07-18T05:07:13;17.80;99.90
53782;DHT22;39692;53.114;7.060;2022-07-18T05:09:38;17.90;99.90
53782;DHT22;39692;53.114;7.060;2022-07-18T05:12:04;17.90;99.90
53782;DHT22;39692;53.114;7.060;2022-07-18T05:14:30;18.00;99.90
53782;DHT22;39692;53.114;7.060;2022-07-18T05:16:55;18.10;99.90
53782;DHT22;39692;53.114;7.060;2022-07-18T05:19:21;18.20;99.90
53782;DHT22;39692;53.114;7.060;2022-07-18T05:21:47;18.30;99.90
53782;DHT22;39692;53.114;7.060;2022-07-18T05:24:13;18.40;99.90
53782;DHT22;39692;53.114;7.060;2022-07-18T05:26:39;18.40;99.90
53782;DHT22;39692;53.114;7.060;2022-07-18T05:29:06;18.50;99.90
53782;DHT22;39692;53.114;7.060;2022-07-18T05:31:32;18.50;99.90
53782;DHT22;39692;53.114;7.060;2022-07-18T05:33:57;18.50;99.90
53782;DHT22;39692;53.114;7.060;2022-07-18T05:36:23;18.60;99.90
53782;DHT22;39692;53.114;7.060;2022-07-18T05:38:49;18.50;99.90
53782;DHT22;39692;53.114;7.060;2022-07-18T05:41:14;18.50;99.90
53782;DHT22;39692;53.114;7.060;2022-07-18T05:43:40;18.50;99.90
53782;DHT22;39692;53.114;7.060;2022-07-18T05:46:06;18.50;99.90
53782;DHT22;39692;53.114;7.060;2022-07-18T05:48:32;18.50;99.90
53782;DHT22;39692;53.114;7.060;2022-07-18T05:50:57;18.50;99.90
53782;DHT22;39692;53.114;7.060;2022-07-18T05:53:23;18.60;99.90
53782;DHT22;39692;53.114;7.060;2022-07-18T05:55:48;18.80;99.90
53782;DHT22;39692;53.114;7.060;2022-07-18T05:58:14;18.90;99.90
53782;DHT22;39692;53.114;7.060;2022-07-18T06:00:40;18.90;99.90
53782;DHT22;39692;53.114;7.060;2022-07-18T06:03:06;19.00;99.90
53782;DHT22;39692;53.114;7.060;2022-07-18T06:05:31;19.10;99.90
53782;DHT22;39692;53.114;7.060;2022-07-18T06:07:57;19.20;99.90
53782;DHT22;39692;53.114;7.060;2022-07-18T06:10:24;19.30;99.90
53782;DHT22;39692;53.114;7.060;2022-07-18T06:12:50;19.40;99.90
53782;DHT22;39692;53.114;7.060;2022-07-18T06:15:16;19.40;99.90
53782;DHT22;39692;53.114;7.060;2022-07-18T06:17:42;19.50;99.90
53782;DHT22;39692;53.114;7.060;2022-07-18T06:20:09;19.60;99.90
53782;DHT22;39692;53.114;7.060;2022-07-18T06:22:36;19.70;99.90
53782;DHT22;39692;53.114;7.060;2022-07-18T06:25:02;19.80;99.90
53782;DHT22;39692;53.114;7.060;2022-07-18T06:27:28;19.90;99.90
53782;DHT22;39692;53.114;7.060;2022-07-18T06:29:54;20.10;99.90
53782;DHT22;39692;53.114;7.060;2022-07-18T06:32:19;20.30;99.50
53782;DHT22;39692;53.114;7.060;2022-07-18T06:34:45;20.40;97.00
53782;DHT22;39692;53.114;7.060;2022-07-18T06:37:11;20.50;97.00
53782;DHT22;39692;53.114;7.060;2022-07-18T06:39:37;20.70;96.30
53782;DHT22;39692;53.114;7.060;2022-07-18T06:42:03;20.80;95.10
53782;DHT22;39692;53.114;7.060;2022-07-18T06:44:29;21.10;95.90
53782;DHT22;39692;53.114;7.060;2022-07-18T06:46:55;21.40;94.30
53782;DHT22;39692;53.114;7.060;2022-07-18T06:49:22;21.60;93.30
53782;DHT22;39692;53.114;7.060;2022-07-18T06:51:51;21.90;92.80
53782;DHT22;39692;53.114;7.060;2022-07-18T06:54:16;22.10;91.20
53782;DHT22;39692;53.114;7.060;2022-07-18T06:56:42;22.50;89.20
53782;DHT22;39692;53.114;7.060;2022-07-18T06:59:08;22.90;90.00
53782;DHT22;39692;53.114;7.060;2022-07-18T07:01:34;23.20;84.10
53782;DHT22;39692;53.114;7.060;2022-07-18T07:03:59;23.30;80.40
53782;DHT22;39692;53.114;7.060;2022-07-18T07:06:25;23.40;79.50
53782;DHT22;39692;53.114;7.060;2022-07-18T07:08:51;23.50;77.70
53782;DHT22;39692;53.114;7.060;2022-07-18T07:11:16;23.80;77.20
53782;DHT22;39692;53.114;7.060;2022-07-18T07:13:42;24.10;75.90
53782;DHT22;39692;53.114;7.060;2022-07-18T07:16:08;24.20;75.80
53782;DHT22;39692;53.114;7.060;2022-07-18T07:18:34;24.50;74.90
53782;DHT22;39692;53.114;7.060;2022-07-18T07:20:59;24.70;72.20
53782;DHT22;39692;53.114;7.060;2022-07-18T07:23:26;24.70;69.60
53782;DHT22;39692;53.114;7.060;2022-07-18T07:25:51;24.60;69.30
53782;DHT22;39692;53.114;7.060;2022-07-18T07:28:17;24.70;68.80
53782;DHT22;39692;53.114;7.060;2022-07-18T07:30:44;24.90;69.80
53782;DHT22;39692;53.114;7.060;2022-07-18T07:33:09;25.30;68.30
53782;DHT22;39692;53.114;7.060;2022-07-18T07:35:35;25.70;66.90
53782;DHT22;39692;53.114;7.060;2022-07-18T07:38:01;26.10;65.60
53782;DHT22;39692;53.114;7.060;2022-07-18T07:40:28;26.60;64.00
53782;DHT22;39692;53.114;7.060;2022-07-18T07:43:07;27.20;61.50
53782;DHT22;39692;53.114;7.060;2022-07-18T07:45:33;27.70;58.60
53782;DHT22;39692;53.114;7.060;2022-07-18T07:47:59;28.00;58.20
53782;DHT22;39692;53.114;7.060;2022-07-18T07:50:25;28.30;57.20
53782;DHT22;39692;53.114;7.060;2022-07-18T07:52:50;28.80;56.00
53782;DHT22;39692;53.114;7.060;2022-07-18T07:55:16;29.20;56.60
53782;DHT22;39692;53.114;7.060;2022-07-18T07:57:42;29.60;55.40
53782;DHT22;39692;53.114;7.060;2022-07-18T08:00:08;29.90;54.00
53782;DHT22;39692;53.114;7.060;2022-07-18T08:02:35;30.10;52.60
53782;DHT22;39692;53.114;7.060;2022-07-18T08:05:01;30.50;52.50
53782;DHT22;39692;53.114;7.060;2022-07-18T08:07:27;30.90;52.10
53782;DHT22;39692;53.114;7.060;2022-07-18T08:09:53;30.90;52.10
53782;DHT22;39692;53.114;7.060;2022-07-18T08:12:18;30.70;52.00
53782;DHT22;39692;53.114;7.060;2022-07-18T08:14:44;30.60;51.40
53782;DHT22;39692;53.114;7.060;2022-07-18T08:17:10;30.70;50.50
53782;DHT22;39692;53.114;7.060;2022-07-18T08:19:36;30.30;51.10
53782;DHT22;39692;53.114;7.060;2022-07-18T08:22:01;30.40;51.40
53782;DHT22;39692;53.114;7.060;2022-07-18T08:24:27;31.00;52.00
53782;DHT22;39692;53.114;7.060;2022-07-18T08:26:53;31.80;50.60
53782;DHT22;39692;53.114;7.060;2022-07-18T08:29:18;32.30;50.70
53782;DHT22;39692;53.114;7.060;2022-07-18T08:31:44;32.10;48.90
53782;DHT22;39692;53.114;7.060;2022-07-18T08:34:09;31.70;48.70
53782;DHT22;39692;53.114;7.060;2022-07-18T08:36:35;30.70;48.10
53782;DHT22;39692;53.114;7.060;2022-07-18T08:39:01;29.80;50.00
53782;DHT22;39692;53.114;7.060;2022-07-18T08:41:27;29.00;51.20
53782;DHT22;39692;53.114;7.060;2022-07-18T08:43:53;28.50;52.10
53782;DHT22;39692;53.114;7.060;2022-07-18T08:46:20;28.60;53.20
53782;DHT22;39692;53.114;7.060;2022-07-18T08:48:48;28.60;52.40
53782;DHT22;39692;53.114;7.060;2022-07-18T08:51:14;28.80;53.10
53782;DHT22;39692;53.114;7.060;2022-07-18T08:53:40;29.30;52.70
53782;DHT22;39692;53.114;7.060;2022-07-18T08:56:06;29.50;52.20
53782;DHT22;39692;53.114;7.060;2022-07-18T08:58:32;29.70;51.80
53782;DHT22;39692;53.114;7.060;2022-07-18T09:00:58;30.20;52.10
53782;DHT22;39692;53.114;7.060;2022-07-18T09:03:24;30.50;51.60
53782;DHT22;39692;53.114;7.060;2022-07-18T09:06:10;30.80;50.60
53782;DHT22;39692;53.114;7.060;2022-07-18T09:08:59;30.90;48.90
53782;DHT22;39692;53.114;7.060;2022-07-18T09:11:26;30.60;49.00
53782;DHT22;39692;53.114;7.060;2022-07-18T09:13:51;29.90;50.20
53782;DHT22;39692;53.114;7.060;2022-07-18T09:16:17;29.60;50.60
53782;DHT22;39692;53.114;7.060;2022-07-18T09:18:45;29.10;50.80
53782;DHT22;39692;53.114;7.060;2022-07-18T09:21:19;28.70;52.00
53782;DHT22;39692;53.114;7.060;2022-07-18T09:23:47;28.30;53.00
53782;DHT22;39692;53.114;7.060;2022-07-18T09:26:40;28.00;54.80
53782;DHT22;39692;53.114;7.060;2022-07-18T09:29:06;27.80;53.70
53782;DHT22;39692;53.114;7.060;2022-07-18T09:31:31;27.80;53.70
53782;DHT22;39692;53.114;7.060;2022-07-18T09:34:01;27.80;53.10
53782;DHT22;39692;53.114;7.060;2022-07-18T09:36:29;27.80;53.70
53782;DHT22;39692;53.114;7.060;2022-07-18T09:38:55;27.70;53.50
53782;DHT22;39692;53.114;7.060;2022-07-18T09:41:23;27.70;54.80
53782;DHT22;39692;53.114;7.060;2022-07-18T09:43:50;27.80;54.40
53782;DHT22;39692;53.114;7.060;2022-07-18T09:46:15;27.90;53.80
53782;DHT22;39692;53.114;7.060;2022-07-18T09:48:41;28.00;54.90
53782;DHT22;39692;53.114;7.060;2022-07-18T09:51:07;28.10;55.50
53782;DHT22;39692;53.114;7.060;2022-07-18T09:53:38;28.40;54.10
53782;DHT22;39692;53.114;7.060;2022-07-18T09:56:09;28.80;53.60
53782;DHT22;39692;53.114;7.060;2022-07-18T09:58:37;29.20;52.10
53782;DHT22;39692;53.114;7.060;2022-07-18T10:01:05;29.40;51.10
53782;DHT22;39692;53.114;7.060;2022-07-18T10:03:31;29.60;52.40
53782;DHT22;39692;53.114;7.060;2022-07-18T10:05:58;29.80;51.30
53782;DHT22;39692;53.114;7.060;2022-07-18T10:08:29;29.80;50.80
53782;DHT22;39692;53.114;7.060;2022-07-18T10:10:57;29.80;50.30
53782;DHT22;39692;53.114;7.060;2022-07-18T10:13:27;29.90;49.80
53782;DHT22;39692;53.114;7.060;2022-07-18T10:15:54;30.20;50.40
53782;DHT22;39692;53.114;7.060;2022-07-18T10:18:24;30.60;49.50
53782;DHT22;39692;53.114;7.060;2022-07-18T10:26:19;31.20;48.30
53782;DHT22;39692;53.114;7.060;2022-07-18T10:31:22;31.40;47.90
53782;DHT22;39692;53.114;7.060;2022-07-18T10:33:49;31.60;46.90
53782;DHT22;39692;53.114;7.060;2022-07-18T10:36:16;31.70;47.10
53782;DHT22;39692;53.114;7.060;2022-07-18T10:41:26;32.20;46.70
53782;DHT22;39692;53.114;7.060;2022-07-18T10:43:52;32.30;47.70
53782;DHT22;39692;53.114;7.060;2022-07-18T10:46:18;32.50;46.10
53782;DHT22;39692;53.114;7.060;2022-07-18T10:48:46;32.60;46.50
53782;DHT22;39692;53.114;7.060;2022-07-18T10:51:14;32.70;44.60
53782;DHT22;39692;53.114;7.060;2022-07-18T10:56:20;33.50;43.10
53782;DHT22;39692;53.114;7.060;2022-07-18T10:58:45;33.70;43.40
53782;DHT22;39692;53.114;7.060;2022-07-18T11:01:16;33.70;42.10
53782;DHT22;39692;53.114;7.060;2022-07-18T11:03:42;33.30;41.90
53782;DHT22;39692;53.114;7.060;2022-07-18T11:06:08;33.10;42.80
53782;DHT22;39692;53.114;7.060;2022-07-18T11:08:34;33.30;43.30
53782;DHT22;39692;53.114;7.060;2022-07-18T11:11:03;33.70;41.30
53782;DHT22;39692;53.114;7.060;2022-07-18T11:13:41;34.10;40.60
53782;DHT22;39692;53.114;7.060;2022-07-18T11:21:26;35.40;40.00
53782;DHT22;39692;53.114;7.060;2022-07-18T11:24:06;35.70;39.60
53782;DHT22;39692;53.114;7.060;2022-07-18T11:26:33;35.60;38.90
53782;DHT22;39692;53.114;7.060;2022-07-18T11:29:05;35.50;38.60
53782;DHT22;39692;53.114;7.060;2022-07-18T11:31:35;35.50;38.40
53782;DHT22;39692;53.114;7.060;2022-07-18T11:34:07;35.50;39.50
53782;DHT22;39692;53.114;7.060;2022-07-18T11:36:33;35.50;39.40
53782;DHT22;39692;53.114;7.060;2022-07-18T11:39:01;35.20;39.30
53782;DHT22;39692;53.114;7.060;2022-07-18T11:41:27;35.00;39.90
53782;DHT22;39692;53.114;7.060;2022-07-18T11:43:54;35.10;40.10
53782;DHT22;39692;53.114;7.060;2022-07-18T11:46:22;35.30;38.70
53782;DHT22;39692;53.114;7.060;2022-07-18T11:49:01;35.60;38.50
53782;DHT22;39692;53.114;7.060;2022-07-18T11:51:38;36.00;38.20
53782;DHT22;39692;53.114;7.060;2022-07-18T11:54:05;36.30;36.60
53782;DHT22;39692;53.114;7.060;2022-07-18T11:56:31;36.20;36.90
53782;DHT22;39692;53.114;7.060;2022-07-18T11:58:56;36.30;36.60
53782;DHT22;39692;53.114;7.060;2022-07-18T12:01:32;36.30;36.30
53782;DHT22;39692;53.114;7.060;2022-07-18T12:03:59;36.20;36.00
53782;DHT22;39692;53.114;7.060;2022-07-18T12:06:25;36.30;36.70
53782;DHT22;39692;53.114;7.060;2022-07-18T12:08:57;36.20;37.00
53782;DHT22;39692;53.114;7.060;2022-07-18T12:11:33;36.20;36.50
53782;DHT22;39692;53.114;7.060;2022-07-18T12:16:38;35.20;36.70
53782;DHT22;39692;53.114;7.060;2022-07-18T12:19:09;35.00;36.60
53782;DHT22;39692;53.114;7.060;2022-07-18T12:24:41;34.90;37.90
53782;DHT22;39692;53.114;7.060;2022-07-18T12:32:59;35.80;36.70
53782;DHT22;39692;53.114;7.060;2022-07-18T12:35:34;35.80;35.00
53782;DHT22;39692;53.114;7.060;2022-07-18T12:38:11;35.60;35.60
53782;DHT22;39692;53.114;7.060;2022-07-18T12:41:06;35.50;35.70
53782;DHT22;39692;53.114;7.060;2022-07-18T12:43:34;35.50;35.70
53782;DHT22;39692;53.114;7.060;2022-07-18T12:46:04;35.30;35.90
53782;DHT22;39692;53.114;7.060;2022-07-18T12:48:32;34.90;35.40
53782;DHT22;39692;53.114;7.060;2022-07-18T12:51:00;34.10;36.10
53782;DHT22;39692;53.114;7.060;2022-07-18T12:53:28;33.90;36.70
53782;DHT22;39692;53.114;7.060;2022-07-18T12:55:54;33.70;36.20
53782;DHT22;39692;53.114;7.060;2022-07-18T12:58:20;33.70;35.60
53782;DHT22;39692;53.114;7.060;2022-07-18T13:00:47;33.70;36.50
53782;DHT22;39692;53.114;7.060;2022-07-18T13:03:13;33.70;36.50
53782;DHT22;39692;53.114;7.060;2022-07-18T13:05:39;33.60;36.60
53782;DHT22;39692;53.114;7.060;2022-07-18T13:08:04;33.50;36.80
53782;DHT22;39692;53.114;7.060;2022-07-18T13:10:33;33.40;37.20
53782;DHT22;39692;53.114;7.060;2022-07-18T13:13:01;33.20;38.50
53782;DHT22;39692;53.114;7.060;2022-07-18T13:15:28;33.20;38.80
53782;DHT22;39692;53.114;7.060;2022-07-18T13:17:54;33.10;37.90
53782;DHT22;39692;53.114;7.060;2022-07-18T13:20:20;33.00;38.20
53782;DHT22;39692;53.114;7.060;2022-07-18T13:22:46;32.80;38.30
53782;DHT22;39692;53.114;7.060;2022-07-18T13:25:12;32.60;38.40
53782;DHT22;39692;53.114;7.060;2022-07-18T13:27:38;32.30;38.80
53782;DHT22;39692;53.114;7.060;2022-07-18T13:30:05;32.20;38.90
53782;DHT22;39692;53.114;7.060;2022-07-18T13:32:32;32.40;40.00
53782;DHT22;39692;53.114;7.060;2022-07-18T13:34:58;32.30;39.40
53782;DHT22;39692;53.114;7.060;2022-07-18T13:37:24;32.20;39.60
53782;DHT22;39692;53.114;7.060;2022-07-18T13:39:49;32.00;39.70
53782;DHT22;39692;53.114;7.060;2022-07-18T13:42:15;31.90;40.00
53782;DHT22;39692;53.114;7.060;2022-07-18T13:44:41;31.90;39.10
53782;DHT22;39692;53.114;7.060;2022-07-18T13:47:07;31.70;39.00
53782;DHT22;39692;53.114;7.060;2022-07-18T13:49:32;31.50;39.50
53782;DHT22;39692;53.114;7.060;2022-07-18T13:51:58;31.20;39.80
53782;DHT22;39692;53.114;7.060;2022-07-18T13:54:24;31.20;40.40
53782;DHT22;39692;53.114;7.060;2022-07-18T13:56:49;31.10;41.40
53782;DHT22;39692;53.114;7.060;2022-07-18T13:59:15;31.10;42.20
53782;DHT22;39692;53.114;7.060;2022-07-18T14:01:41;31.10;41.40
53782;DHT22;39692;53.114;7.060;2022-07-18T14:04:08;30.90;41.90
53782;DHT22;39692;53.114;7.060;2022-07-18T14:06:35;30.80;41.90
53782;DHT22;39692;53.114;7.060;2022-07-18T14:09:02;30.60;41.80
53782;DHT22;39692;53.114;7.060;2022-07-18T14:11:28;30.50;43.80
53782;DHT22;39692;53.114;7.060;2022-07-18T14:13:54;30.30;43.70
53782;DHT22;39692;53.114;7.060;2022-07-18T14:16:19;30.20;44.40
53782;DHT22;39692;53.114;7.060;2022-07-18T14:18:45;30.30;43.60
53782;DHT22;39692;53.114;7.060;2022-07-18T14:21:11;30.20;43.40
53782;DHT22;39692;53.114;7.060;2022-07-18T14:23:36;29.90;43.50
53782;DHT22;39692;53.114;7.060;2022-07-18T14:26:02;29.60;44.20
53782;DHT22;39692;53.114;7.060;2022-07-18T14:28:28;29.50;44.60
53782;DHT22;39692;53.114;7.060;2022-07-18T14:30:54;29.40;44.30
53782;DHT22;39692;53.114;7.060;2022-07-18T14:33:19;29.40;44.80
53782;DHT22;39692;53.114;7.060;2022-07-18T14:35:45;29.20;45.50
53782;DHT22;39692;53.114;7.060;2022-07-18T14:38:11;29.20;45.80
53782;DHT22;39692;53.114;7.060;2022-07-18T14:40:36;29.00;45.90
53782;DHT22;39692;53.114;7.060;2022-07-18T14:43:02;28.80;46.80
53782;DHT22;39692;53.114;7.060;2022-07-18T14:45:28;28.70;47.50
53782;DHT22;39692;53.114;7.060;2022-07-18T14:47:53;28.70;46.90
53782;DHT22;39692;53.114;7.060;2022-07-18T14:50:19;28.70;47.30
53782;DHT22;39692;53.114;7.060;2022-07-18T14:52:44;28.80;47.50
53782;DHT22;39692;53.114;7.060;2022-07-18T14:55:10;28.80;47.60
53782;DHT22;39692;53.114;7.060;2022-07-18T14:57:36;29.00;47.30
53782;DHT22;39692;53.114;7.060;2022-07-18T15:00:04;29.10;47.50
53782;DHT22;39692;53.114;7.060;2022-07-18T15:02:31;29.10;47.20
53782;DHT22;39692;53.114;7.060;2022-07-18T15:04:57;29.10;45.50
53782;DHT22;39692;53.114;7.060;2022-07-18T15:07:23;29.10;44.80
53782;DHT22;39692;53.114;7.060;2022-07-18T15:09:48;29.10;45.40
53782;DHT22;39692;53.114;7.060;2022-07-18T15:12:14;29.30;45.80
53782;DHT22;39692;53.114;7.060;2022-07-18T15:14:40;29.40;45.40
53782;DHT22;39692;53.114;7.060;2022-07-18T15:17:06;29.40;44.50
53782;DHT22;39692;53.114;7.060;2022-07-18T15:19:32;29.40;44.60
53782;DHT22;39692;53.114;7.060;2022-07-18T15:21:58;29.30;44.90
53782;DHT22;39692;53.114;7.060;2022-07-18T15:24:23;29.30;44.90
53782;DHT22;39692;53.114;7.060;2022-07-18T15:26:49;29.30;45.30
53782;DHT22;39692;53.114;7.060;2022-07-18T15:29:15;29.40;46.20
53782;DHT22;39692;53.114;7.060;2022-07-18T15:31:41;29.50;45.50
53782;DHT22;39692;53.114;7.060;2022-07-18T15:34:06;29.50;45.50
53782;DHT22;39692;53.114;7.060;2022-07-18T15:36:32;29.50;47.00
53782;DHT22;39692;53.114;7.060;2022-07-18T15:38:58;29.50;47.20
53782;DHT22;39692;53.114;7.060;2022-07-18T15:41:23;29.40;47.10
53782;DHT22;39692;53.114;7.060;2022-07-18T15:43:49;29.30;47.50
53782;DHT22;39692;53.114;7.060;2022-07-18T15:46:15;29.30;45.80
53782;DHT22;39692;53.114;7.060;2022-07-18T15:48:46;29.40;45.70
53782;DHT22;39692;53.114;7.060;2022-07-18T15:51:13;29.60;45.50
53782;DHT22;39692;53.114;7.060;2022-07-18T15:53:39;29.70;44.70
53782;DHT22;39692;53.114;7.060;2022-07-18T15:56:05;29.80;44.50
53782;DHT22;39692;53.114;7.060;2022-07-18T15:58:31;29.80;44.40